AUA189 LOWW-EDDM
Flight info
| Callsign | AUA189 |
|---|---|
| Flight time | 0h 35m |
| Altitude | 30000 |
| Route | SOVIL2B SOVIL DCT SITNI DCT BAGSI DCT MATIG DCT AMADI Q113 NAPSA NAPSA1B |
| Aircraft | A320/M-SDE2E3FGIJ1RWXY/LB1 |
Departure
| Time | 2026-05-06 17:43 |
|---|---|
| Airport | Vienna International Airport (LOWW) |
Arrival
| Time | 2026-05-06 18:19 |
|---|---|
| Airport | Munich Airport (EDDM) |
| Time | Latitude | Longitude | Altitude | Speed | Heading |
|---|---|---|---|---|---|
| 2026-05-06 17:21 | 48.11880 | 16.56822 | 636 ft | 0 kts | 206° |
| 2026-05-06 17:38 | 48.11898 | 16.56836 | 622 ft | 4 kts | 206° |
| 2026-05-06 17:38 | 48.11918 | 16.56851 | 624 ft | 3 kts | 205° |
| 2026-05-06 17:39 | 48.11941 | 16.56858 | 626 ft | 4 kts | 151° |
| 2026-05-06 17:39 | 48.11956 | 16.56833 | 617 ft | 1 kts | 116° |
| 2026-05-06 17:39 | 48.11956 | 16.56832 | 617 ft | 0 kts | 116° |
| 2026-05-06 17:40 | 48.11951 | 16.56849 | 621 ft | 7 kts | 116° |
| 2026-05-06 17:41 | 48.11914 | 16.56961 | 618 ft | 14 kts | 116° |
| 2026-05-06 17:41 | 48.11866 | 16.57106 | 615 ft | 16 kts | 116° |
| 2026-05-06 17:41 | 48.11840 | 16.57260 | 621 ft | 14 kts | 111° |
| 2026-05-06 17:41 | 48.11904 | 16.57305 | 608 ft | 12 kts | 346° |
| 2026-05-06 17:42 | 48.11981 | 16.57316 | 609 ft | 15 kts | 49° |
| 2026-05-06 17:42 | 48.12009 | 16.57510 | 609 ft | 21 kts | 99° |
| 2026-05-06 17:42 | 48.11972 | 16.57725 | 612 ft | 19 kts | 105° |
| 2026-05-06 17:42 | 48.11908 | 16.57847 | 614 ft | 16 kts | 162° |
| 2026-05-06 17:43 | 48.11666 | 16.57949 | 611 ft | 72 kts | 164° |
| 2026-05-06 17:43 | 48.10954 | 16.58252 | 655 ft | 132 kts | 164° |
| 2026-05-06 17:43 | 48.10086 | 16.58628 | 1425 ft | 129 kts | 166° |
| 2026-05-06 17:43 | 48.09195 | 16.58996 | 2111 ft | 141 kts | 169° |
| 2026-05-06 17:44 | 48.08180 | 16.59405 | 2618 ft | 163 kts | 172° |
| 2026-05-06 17:44 | 48.07027 | 16.59869 | 3276 ft | 175 kts | 171° |
| 2026-05-06 17:44 | 48.05839 | 16.59894 | 4103 ft | 173 kts | 207° |
| 2026-05-06 17:44 | 48.04967 | 16.58655 | 4923 ft | 179 kts | 231° |
| 2026-05-06 17:45 | 48.04185 | 16.57056 | 5493 ft | 202 kts | 232° |
| 2026-05-06 17:45 | 48.03300 | 16.55257 | 6035 ft | 227 kts | 232° |
| 2026-05-06 17:45 | 48.02314 | 16.53279 | 6696 ft | 245 kts | 231° |
| 2026-05-06 17:45 | 48.01272 | 16.51218 | 7627 ft | 252 kts | 231° |
| 2026-05-06 17:46 | 48.00198 | 16.49116 | 8627 ft | 257 kts | 231° |
| 2026-05-06 17:46 | 47.99097 | 16.46978 | 9628 ft | 263 kts | 232° |
| 2026-05-06 17:46 | 47.98206 | 16.44567 | 10559 ft | 271 kts | 249° |
| 2026-05-06 17:46 | 47.97885 | 16.41736 | 11301 ft | 289 kts | 266° |
| 2026-05-06 17:47 | 47.97981 | 16.38600 | 11694 ft | 315 kts | 269° |
| 2026-05-06 17:47 | 47.98120 | 16.35209 | 12020 ft | 339 kts | 270° |
| 2026-05-06 17:47 | 47.98277 | 16.31582 | 12318 ft | 361 kts | 271° |
| 2026-05-06 17:47 | 47.98447 | 16.27775 | 12842 ft | 373 kts | 271° |
| 2026-05-06 17:48 | 47.98615 | 16.23875 | 13576 ft | 379 kts | 270° |
| 2026-05-06 17:48 | 47.98775 | 16.19926 | 14295 ft | 383 kts | 270° |
| 2026-05-06 17:48 | 47.98927 | 16.15939 | 15040 ft | 386 kts | 270° |
| 2026-05-06 17:48 | 47.99081 | 16.11920 | 15795 ft | 389 kts | 271° |
| 2026-05-06 17:49 | 47.99311 | 16.07883 | 16549 ft | 393 kts | 272° |
| 2026-05-06 17:49 | 47.99613 | 16.03869 | 17286 ft | 395 kts | 273° |
| 2026-05-06 17:49 | 47.99957 | 15.99775 | 18023 ft | 398 kts | 274° |
| 2026-05-06 17:49 | 48.00312 | 15.95656 | 18619 ft | 401 kts | 273° |
| 2026-05-06 17:50 | 48.00662 | 15.91512 | 19213 ft | 404 kts | 273° |
| 2026-05-06 17:50 | 48.00997 | 15.87340 | 19850 ft | 405 kts | 272° |
| 2026-05-06 17:50 | 48.01319 | 15.83152 | 20453 ft | 407 kts | 272° |
| 2026-05-06 17:50 | 48.01633 | 15.78945 | 20995 ft | 410 kts | 272° |
| 2026-05-06 17:51 | 48.01945 | 15.74702 | 21536 ft | 412 kts | 272° |
| 2026-05-06 17:51 | 48.02257 | 15.70425 | 22034 ft | 415 kts | 272° |
| 2026-05-06 17:51 | 48.02569 | 15.66125 | 22506 ft | 417 kts | 272° |
| 2026-05-06 17:51 | 48.02885 | 15.61799 | 22973 ft | 421 kts | 272° |
| 2026-05-06 17:52 | 48.03202 | 15.57446 | 23431 ft | 423 kts | 272° |
| 2026-05-06 17:52 | 48.03521 | 15.53062 | 23817 ft | 425 kts | 272° |
| 2026-05-06 17:52 | 48.03842 | 15.48657 | 24210 ft | 427 kts | 272° |
| 2026-05-06 17:52 | 48.04162 | 15.44238 | 24611 ft | 429 kts | 272° |
| 2026-05-06 17:53 | 48.04483 | 15.39802 | 24976 ft | 430 kts | 272° |
| 2026-05-06 17:53 | 48.04762 | 15.35340 | 25285 ft | 431 kts | 270° |
| 2026-05-06 17:53 | 48.04918 | 15.30858 | 25590 ft | 432 kts | 268° |
| 2026-05-06 17:53 | 48.04980 | 15.26363 | 25913 ft | 433 kts | 266° |
| 2026-05-06 17:54 | 48.04996 | 15.21862 | 26224 ft | 434 kts | 266° |
| 2026-05-06 17:54 | 48.05004 | 15.17333 | 26509 ft | 436 kts | 266° |
| 2026-05-06 17:54 | 48.05023 | 15.12799 | 26782 ft | 437 kts | 266° |
| 2026-05-06 17:54 | 48.05069 | 15.08252 | 27007 ft | 439 kts | 267° |
| 2026-05-06 17:55 | 48.05132 | 15.03685 | 27271 ft | 440 kts | 267° |
| 2026-05-06 17:55 | 48.05205 | 14.99109 | 27475 ft | 441 kts | 267° |
| 2026-05-06 17:55 | 48.05280 | 14.94527 | 27690 ft | 440 kts | 267° |
| 2026-05-06 17:55 | 48.05347 | 14.89961 | 27987 ft | 439 kts | 266° |
| 2026-05-06 17:56 | 48.05404 | 14.85408 | 28265 ft | 438 kts | 266° |
| 2026-05-06 17:56 | 48.05457 | 14.80863 | 28542 ft | 437 kts | 266° |
| 2026-05-06 17:56 | 48.05501 | 14.76311 | 28838 ft | 436 kts | 266° |
| 2026-05-06 17:56 | 48.05536 | 14.71792 | 29158 ft | 434 kts | 266° |
| 2026-05-06 17:57 | 48.05569 | 14.67281 | 29474 ft | 433 kts | 266° |
| 2026-05-06 17:57 | 48.05600 | 14.62781 | 29684 ft | 433 kts | 266° |
| 2026-05-06 17:57 | 48.05664 | 14.53838 | 29700 ft | 425 kts | 265° |
| 2026-05-06 17:58 | 48.05714 | 14.45046 | 29696 ft | 424 kts | 265° |
| 2026-05-06 17:58 | 48.05757 | 14.36240 | 29661 ft | 425 kts | 265° |
| 2026-05-06 17:59 | 48.05775 | 14.31810 | 29234 ft | 427 kts | 265° |
| 2026-05-06 17:59 | 48.05790 | 14.27420 | 28815 ft | 429 kts | 265° |
| 2026-05-06 17:59 | 48.05801 | 14.22956 | 28400 ft | 431 kts | 265° |
| 2026-05-06 17:59 | 48.05814 | 14.18463 | 27991 ft | 433 kts | 265° |
| 2026-05-06 18:00 | 48.05831 | 14.13967 | 27622 ft | 433 kts | 265° |
| 2026-05-06 18:00 | 48.05848 | 14.09476 | 27205 ft | 432 kts | 265° |
| 2026-05-06 18:00 | 48.05861 | 14.04977 | 26624 ft | 434 kts | 265° |
| 2026-05-06 18:00 | 48.05871 | 14.00446 | 25864 ft | 437 kts | 265° |
| 2026-05-06 18:01 | 48.05877 | 13.95889 | 25131 ft | 440 kts | 265° |
| 2026-05-06 18:01 | 48.05880 | 13.91293 | 24409 ft | 445 kts | 265° |
| 2026-05-06 18:01 | 48.05882 | 13.86653 | 23702 ft | 445 kts | 265° |
| 2026-05-06 18:01 | 48.05886 | 13.82035 | 22959 ft | 444 kts | 266° |
| 2026-05-06 18:02 | 48.05891 | 13.77446 | 22153 ft | 439 kts | 266° |
| 2026-05-06 18:02 | 48.05893 | 13.72902 | 21623 ft | 436 kts | 266° |
| 2026-05-06 18:02 | 48.05890 | 13.68387 | 21103 ft | 432 kts | 266° |
| 2026-05-06 18:02 | 48.05883 | 13.63925 | 20593 ft | 428 kts | 265° |
| 2026-05-06 18:03 | 48.05872 | 13.59487 | 20094 ft | 426 kts | 265° |
| 2026-05-06 18:03 | 48.05860 | 13.55071 | 19599 ft | 423 kts | 266° |
| 2026-05-06 18:03 | 48.05925 | 13.50677 | 19114 ft | 422 kts | 268° |
| 2026-05-06 18:03 | 48.06115 | 13.46305 | 18636 ft | 421 kts | 270° |
| 2026-05-06 18:04 | 48.06383 | 13.41949 | 18162 ft | 420 kts | 271° |
| 2026-05-06 18:04 | 48.06679 | 13.37618 | 17649 ft | 417 kts | 271° |
| 2026-05-06 18:04 | 48.06970 | 13.33321 | 17116 ft | 414 kts | 271° |
| 2026-05-06 18:04 | 48.07236 | 13.29059 | 16619 ft | 410 kts | 271° |
| 2026-05-06 18:05 | 48.07474 | 13.24815 | 16114 ft | 407 kts | 270° |
| 2026-05-06 18:05 | 48.07690 | 13.20615 | 15657 ft | 404 kts | 270° |
| 2026-05-06 18:05 | 48.07897 | 13.16439 | 15272 ft | 402 kts | 270° |
| 2026-05-06 18:05 | 48.08100 | 13.12286 | 14901 ft | 399 kts | 270° |
| 2026-05-06 18:06 | 48.08306 | 13.08154 | 14535 ft | 397 kts | 271° |
| 2026-05-06 18:06 | 48.08863 | 13.04106 | 14177 ft | 402 kts | 285° |
| 2026-05-06 18:06 | 48.10080 | 13.00322 | 13840 ft | 404 kts | 293° |
| 2026-05-06 18:06 | 48.11395 | 12.96619 | 13540 ft | 402 kts | 294° |
| 2026-05-06 18:07 | 48.12720 | 12.92932 | 13193 ft | 401 kts | 294° |
| 2026-05-06 18:07 | 48.14039 | 12.89274 | 12871 ft | 399 kts | 294° |
| 2026-05-06 18:07 | 48.15362 | 12.85612 | 12602 ft | 400 kts | 295° |
| 2026-05-06 18:07 | 48.16681 | 12.81945 | 12341 ft | 400 kts | 295° |
| 2026-05-06 18:08 | 48.17998 | 12.78273 | 12083 ft | 398 kts | 295° |
| 2026-05-06 18:08 | 48.19305 | 12.74620 | 11827 ft | 397 kts | 295° |
| 2026-05-06 18:08 | 48.20605 | 12.70975 | 11574 ft | 396 kts | 294° |
| 2026-05-06 18:08 | 48.21901 | 12.67336 | 11317 ft | 395 kts | 294° |
| 2026-05-06 18:09 | 48.23188 | 12.63707 | 11074 ft | 394 kts | 294° |
| 2026-05-06 18:09 | 48.24468 | 12.60082 | 10823 ft | 392 kts | 294° |
| 2026-05-06 18:09 | 48.25715 | 12.56557 | 10586 ft | 373 kts | 294° |
| 2026-05-06 18:09 | 48.26908 | 12.53203 | 10349 ft | 355 kts | 294° |
| 2026-05-06 18:10 | 48.28048 | 12.49995 | 9961 ft | 343 kts | 293° |
| 2026-05-06 18:10 | 48.28893 | 12.46711 | 9374 ft | 334 kts | 282° |
| 2026-05-06 18:10 | 48.29556 | 12.43373 | 8820 ft | 334 kts | 283° |
| 2026-05-06 18:10 | 48.30216 | 12.40036 | 8313 ft | 333 kts | 283° |
| 2026-05-06 18:11 | 48.30871 | 12.36712 | 7801 ft | 330 kts | 283° |
| 2026-05-06 18:11 | 48.31299 | 12.34530 | 7476 ft | 329 kts | 283° |
| 2026-05-06 18:11 | 48.32154 | 12.30153 | 6945 ft | 318 kts | 283° |
| 2026-05-06 18:11 | 48.32755 | 12.27089 | 6812 ft | 290 kts | 283° |
| 2026-05-06 18:12 | 48.33300 | 12.24325 | 6699 ft | 264 kts | 283° |
| 2026-05-06 18:12 | 48.33805 | 12.21734 | 6571 ft | 252 kts | 282° |
| 2026-05-06 18:12 | 48.34281 | 12.19275 | 6420 ft | 240 kts | 282° |
| 2026-05-06 18:12 | 48.34740 | 12.16891 | 6136 ft | 236 kts | 282° |
| 2026-05-06 18:13 | 48.35185 | 12.14569 | 5815 ft | 233 kts | 282° |
| 2026-05-06 18:13 | 48.35630 | 12.12245 | 5481 ft | 231 kts | 282° |
| 2026-05-06 18:13 | 48.36069 | 12.09959 | 5265 ft | 223 kts | 283° |
| 2026-05-06 18:13 | 48.36456 | 12.07762 | 5061 ft | 213 kts | 274° |
| 2026-05-06 18:14 | 48.36380 | 12.05594 | 4812 ft | 205 kts | 262° |
| 2026-05-06 18:14 | 48.36218 | 12.03527 | 4554 ft | 193 kts | 263° |
| 2026-05-06 18:14 | 48.36070 | 12.01579 | 4299 ft | 182 kts | 264° |
| 2026-05-06 18:14 | 48.35933 | 11.99759 | 4091 ft | 171 kts | 264° |
| 2026-05-06 18:15 | 48.35803 | 11.98019 | 3846 ft | 164 kts | 263° |
| 2026-05-06 18:15 | 48.35678 | 11.96340 | 3624 ft | 160 kts | 263° |
| 2026-05-06 18:15 | 48.35555 | 11.94695 | 3416 ft | 154 kts | 263° |
| 2026-05-06 18:15 | 48.35442 | 11.93196 | 3221 ft | 135 kts | 263° |
| 2026-05-06 18:16 | 48.35342 | 11.91869 | 3071 ft | 123 kts | 264° |
| 2026-05-06 18:16 | 48.35250 | 11.90650 | 2894 ft | 115 kts | 264° |
| 2026-05-06 18:16 | 48.35160 | 11.89464 | 2747 ft | 114 kts | 264° |
| 2026-05-06 18:16 | 48.35071 | 11.88261 | 2583 ft | 117 kts | 263° |
| 2026-05-06 18:17 | 48.35010 | 11.87452 | 2500 ft | 117 kts | 263° |
| 2026-05-06 18:17 | 48.34917 | 11.86219 | 2303 ft | 118 kts | 261° |
| 2026-05-06 18:17 | 48.34823 | 11.84978 | 2132 ft | 120 kts | 263° |
| 2026-05-06 18:17 | 48.34729 | 11.83740 | 1951 ft | 119 kts | 263° |
| 2026-05-06 18:18 | 48.34637 | 11.82535 | 1791 ft | 113 kts | 263° |
| 2026-05-06 18:18 | 48.34549 | 11.81369 | 1671 ft | 112 kts | 262° |
| 2026-05-06 18:18 | 48.34465 | 11.80238 | 1503 ft | 106 kts | 262° |
| 2026-05-06 18:18 | 48.34391 | 11.79299 | 1482 ft | 75 kts | 263° |
| 2026-05-06 18:19 | 48.34362 | 11.78710 | 1480 ft | 42 kts | 278° |
| 2026-05-06 18:19 | 48.34445 | 11.78358 | 1481 ft | 29 kts | 293° |
| 2026-05-06 18:19 | 48.34493 | 11.78193 | 1484 ft | 0 kts | 294° |
| 2026-05-06 18:19 | 48.34498 | 11.78175 | 1475 ft | 8 kts | 294° |
| 2026-05-06 18:20 | 48.34564 | 11.78085 | 1477 ft | 11 kts | 341° |
| 2026-05-06 18:20 | 48.34607 | 11.78075 | 1484 ft | 0 kts | 352° |
| 2026-05-06 18:20 | 48.34667 | 11.78094 | 1482 ft | 18 kts | 44° |
| 2026-05-06 18:20 | 48.34692 | 11.78274 | 1486 ft | 18 kts | 84° |
| 2026-05-06 18:21 | 48.34708 | 11.78481 | 1486 ft | 21 kts | 84° |
| 2026-05-06 18:21 | 48.34724 | 11.78687 | 1475 ft | 20 kts | 83° |
| 2026-05-06 18:21 | 48.34740 | 11.78891 | 1479 ft | 19 kts | 83° |
| 2026-05-06 18:21 | 48.34754 | 11.79087 | 1478 ft | 18 kts | 83° |
| 2026-05-06 18:22 | 48.34769 | 11.79272 | 1475 ft | 17 kts | 83° |
| 2026-05-06 18:22 | 48.34780 | 11.79417 | 1486 ft | 10 kts | 83° |
| 2026-05-06 18:22 | 48.34791 | 11.79520 | 1483 ft | 11 kts | 68° |
| 2026-05-06 18:22 | 48.34863 | 11.79557 | 1486 ft | 15 kts | 353° |
| 2026-05-06 18:23 | 48.34990 | 11.79535 | 1478 ft | 19 kts | 353° |
| 2026-05-06 18:23 | 48.35109 | 11.79555 | 1483 ft | 17 kts | 50° |
| 2026-05-06 18:23 | 48.35133 | 11.79725 | 1486 ft | 16 kts | 83° |
| 2026-05-06 18:23 | 48.35145 | 11.79889 | 1486 ft | 14 kts | 83° |
| 2026-05-06 18:24 | 48.35155 | 11.80011 | 1486 ft | 11 kts | 83° |
| 2026-05-06 18:24 | 48.35171 | 11.80130 | 1479 ft | 13 kts | 55° |
| 2026-05-06 18:24 | 48.35262 | 11.80144 | 1473 ft | 15 kts | 352° |
| 2026-05-06 18:24 | 48.35341 | 11.80123 | 1484 ft | 7 kts | 324° |
| 2026-05-06 18:25 | 48.35341 | 11.80046 | 1478 ft | 7 kts | 263° |
| 2026-05-06 18:25 | 48.35338 | 11.80010 | 1486 ft | 0 kts | 263° |